Roskilde, Denmark
Current Conditions -  °F | °C
As of 11:50 PM on Thursday 23 Oct 2014 (Local Time) from EKRK Reporting Station
Broken Clouds Broken Clouds  
Wind Chill: 50°   Ceiling: 700
Heat Index: 50°   Visibility: 5mi
Dew Point: 50°   Wind: 10mph
Humidity: 100%   Direction: 160°SSE
Pressure: 30.15"   Gusts: NA
Location:  55.64°N, 12.08°E
Report Text: EKRK 232150Z AUTO 16009KT 8000NDV FEW005/// BKN007///BKN011/// 10/10 Q1021
Loading
Personal Weather Stations






























Interactive Weather Map
Tropical Storm Tracking
New forecast layout! Learn more

10-Day Weather Forecast

Advertisements
Track Severe Weather on mobile